Time;durP1;ratioP1;P1;durP2;ratioP2;P2;SDS_P1;SDS_P2;PMS_P1;PMS_P2;Temp;Humidity;BMP_temperature;BMP_pressure;BME280_temperature;BME280_humidity;BME280_pressure;Samples;Min_cycle;Max_cycle;Signal;HPM_P1;HPM_P2
2022/03/05 00:02:25;;;;;;;;;;;7.00;99.90;;;;;;5077989;28;19923;-91
2022/03/05 00:04:51;;;;;;;;;;;6.90;99.90;;;;;;5071408;28;19954;-93
2022/03/05 00:07:19;;;;;;;;;;;6.90;99.90;;;;;;5074010;28;19920;-93
2022/03/05 00:09:45;;;;;;;;;;;6.90;99.90;;;;;;5071466;28;19916;-94
2022/03/05 00:12:11;;;;;;;;;;;6.80;99.90;;;;;;5079507;28;19912;-92
2022/03/05 00:14:36;;;;;;;;;;;6.80;99.90;;;;;;5074365;28;20003;-93
2022/03/05 00:17:02;;;;;;;;;;;6.70;99.90;;;;;;5077210;28;19889;-93
2022/03/05 00:19:28;;;;;;;;;;;6.80;99.90;;;;;;5077320;28;19956;-94
2022/03/05 00:21:54;;;;;;;;;;;6.70;99.90;;;;;;5075426;28;19915;-93
2022/03/05 00:24:20;;;;;;;;;;;6.70;99.90;;;;;;5073032;28;20262;-93
2022/03/05 00:26:46;;;;;;;;;;;6.70;99.90;;;;;;5074056;28;20189;-93
2022/03/05 00:29:12;;;;;;;;;;;6.60;99.90;;;;;;5071768;28;19952;-92
2022/03/05 00:31:37;;;;;;;;;;;6.70;99.90;;;;;;5073103;28;20292;-93
2022/03/05 00:34:03;;;;;;;;;;;6.70;99.90;;;;;;5090199;28;19919;-93
2022/03/05 00:36:30;;;;;;;;;;;6.70;99.90;;;;;;5074950;28;20380;-93
2022/03/05 00:38:55;;;;;;;;;;;6.60;99.90;;;;;;5071762;28;19909;-93
2022/03/05 00:41:21;;;;;;;;;;;6.60;99.90;;;;;;5070368;28;19931;-92
2022/03/05 00:43:47;;;;;;;;;;;6.70;99.90;;;;;;5076148;28;19908;-91
2022/03/05 00:46:12;;;;;;;;;;;6.60;99.90;;;;;;5073567;28;19908;-94
2022/03/05 00:48:38;;;;;;;;;;;6.50;99.90;;;;;;5074569;28;20435;-93
2022/03/05 00:51:04;;;;;;;;;;;6.50;99.90;;;;;;5073730;28;20296;-93
2022/03/05 00:53:30;;;;;;;;;;;6.40;99.90;;;;;;5075162;28;19976;-93
2022/03/05 00:55:56;;;;;;;;;;;6.40;99.90;;;;;;5096783;28;19912;-94
2022/03/05 00:58:21;;;;;;;;;;;6.50;99.90;;;;;;5079328;28;19961;-93
2022/03/05 01:00:52;;;;;;;;;;;6.40;99.90;;;;;;5071749;28;19908;-93
2022/03/05 01:03:18;;;;;;;;;;;6.50;99.90;;;;;;5070762;28;19909;-93
2022/03/05 01:05:43;;;;;;;;;;;6.40;99.90;;;;;;5071570;28;19922;-94
2022/03/05 01:08:09;;;;;;;;;;;6.40;99.90;;;;;;5070171;28;20339;-93
2022/03/05 01:10:35;;;;;;;;;;;6.40;99.90;;;;;;5072285;28;19915;-93
2022/03/05 01:13:00;;;;;;;;;;;6.50;99.90;;;;;;5070773;28;20018;-93
2022/03/05 01:15:26;;;;;;;;;;;6.50;99.90;;;;;;5070948;28;19956;-93
2022/03/05 01:17:52;;;;;;;;;;;6.40;99.90;;;;;;5074466;28;19908;-93
2022/03/05 01:20:17;;;;;;;;;;;6.40;99.90;;;;;;5072909;28;19912;-93
2022/03/05 01:22:43;;;;;;;;;;;6.40;99.90;;;;;;5070042;28;19931;-94
2022/03/05 01:25:08;;;;;;;;;;;6.30;99.90;;;;;;5070495;28;19908;-94
2022/03/05 01:27:34;;;;;;;;;;;6.30;99.90;;;;;;5072321;28;19915;-93
2022/03/05 01:29:59;;;;;;;;;;;6.30;99.90;;;;;;5072879;28;19908;-93
2022/03/05 01:32:25;;;;;;;;;;;6.30;99.90;;;;;;5091132;28;20047;-93
2022/03/05 01:34:51;;;;;;;;;;;6.30;99.90;;;;;;5087539;28;19909;-91
2022/03/05 01:37:17;;;;;;;;;;;6.30;99.90;;;;;;5073186;28;20428;-90
2022/03/05 01:39:43;;;;;;;;;;;6.20;99.90;;;;;;5074258;28;19912;-92
2022/03/05 01:42:09;;;;;;;;;;;6.20;99.90;;;;;;5075992;28;19954;-94
2022/03/05 01:44:34;;;;;;;;;;;6.20;99.90;;;;;;5070921;28;19908;-93
2022/03/05 01:47:01;;;;;;;;;;;6.10;99.90;;;;;;5074073;28;19930;-92
2022/03/05 01:49:27;;;;;;;;;;;6.10;99.90;;;;;;5073027;28;20380;-91
2022/03/05 01:51:54;;;;;;;;;;;6.10;99.90;;;;;;5072627;28;19927;-92
2022/03/05 01:54:20;;;;;;;;;;;6.10;99.90;;;;;;5077366;28;20663;-91
2022/03/05 01:56:49;;;;;;;;;;;6.10;99.90;;;;;;5078427;28;19973;-91
2022/03/05 01:59:15;;;;;;;;;;;6.10;99.90;;;;;;5075676;28;19950;-91
2022/03/05 02:01:41;;;;;;;;;;;6.10;99.90;;;;;;5078977;28;19908;-91
2022/03/05 02:04:06;;;;;;;;;;;6.00;99.90;;;;;;5074076;28;19943;-92
2022/03/05 02:06:32;;;;;;;;;;;6.10;99.90;;;;;;5081650;28;19908;-92
2022/03/05 02:08:58;;;;;;;;;;;6.10;99.90;;;;;;5080125;28;19911;-92
2022/03/05 02:11:24;;;;;;;;;;;6.10;99.90;;;;;;5081095;28;19934;-92
2022/03/05 02:13:50;;;;;;;;;;;6.10;99.90;;;;;;5075736;28;19912;-91
2022/03/05 02:16:17;;;;;;;;;;;6.00;99.90;;;;;;5072964;28;19909;-92
2022/03/05 02:18:46;;;;;;;;;;;6.00;99.90;;;;;;5077010;28;19908;-92
2022/03/05 02:21:12;;;;;;;;;;;6.00;99.90;;;;;;5073106;28;19908;-91
2022/03/05 02:23:38;;;;;;;;;;;6.10;99.90;;;;;;5081068;28;19908;-92
2022/03/05 02:26:03;;;;;;;;;;;6.10;99.90;;;;;;5092577;28;19938;-91
2022/03/05 02:28:30;;;;;;;;;;;6.00;99.90;;;;;;5084236;28;20392;-92
2022/03/05 02:30:55;;;;;;;;;;;5.90;99.90;;;;;;5072553;28;19962;-92
2022/03/05 02:33:21;;;;;;;;;;;5.90;99.90;;;;;;5079290;28;20116;-91
2022/03/05 02:35:47;;;;;;;;;;;5.90;99.90;;;;;;5073399;28;20437;-92
2022/03/05 02:38:19;;;;;;;;;;;5.90;99.90;;;;;;5074951;28;19935;-92
2022/03/05 02:40:45;;;;;;;;;;;5.80;99.90;;;;;;5090526;28;19981;-91
2022/03/05 02:43:11;;;;;;;;;;;5.90;99.90;;;;;;5072186;28;19908;-91
2022/03/05 02:45:36;;;;;;;;;;;5.90;99.90;;;;;;5075577;28;20003;-91
2022/03/05 02:48:03;;;;;;;;;;;5.90;99.90;;;;;;5091541;28;19999;-92
2022/03/05 02:50:29;;;;;;;;;;;5.90;99.90;;;;;;5078125;28;19956;-92
2022/03/05 02:52:55;;;;;;;;;;;5.90;99.90;;;;;;5078408;28;19920;-91
2022/03/05 02:55:20;;;;;;;;;;;5.80;99.90;;;;;;5072815;28;19919;-91
2022/03/05 02:57:46;;;;;;;;;;;5.80;99.90;;;;;;5074786;28;19908;-91
2022/03/05 03:00:12;;;;;;;;;;;5.80;99.90;;;;;;5078171;28;19912;-91
2022/03/05 03:02:38;;;;;;;;;;;5.80;99.90;;;;;;5079478;28;19995;-91
2022/03/05 03:05:04;;;;;;;;;;;5.70;99.90;;;;;;5074979;28;19955;-91
2022/03/05 03:07:30;;;;;;;;;;;5.70;99.90;;;;;;5071776;28;19912;-91
2022/03/05 03:09:58;;;;;;;;;;;5.80;99.90;;;;;;5063657;28;20288;-91
2022/03/05 03:12:27;;;;;;;;;;;5.80;99.90;;;;;;5067962;28;19924;-91
2022/03/05 03:14:53;;;;;;;;;;;5.80;99.90;;;;;;5090223;28;19948;-92
2022/03/05 03:17:18;;;;;;;;;;;5.80;99.90;;;;;;5082368;28;20247;-91
2022/03/05 03:19:44;;;;;;;;;;;5.80;99.90;;;;;;5083087;28;19909;-91
2022/03/05 03:22:10;;;;;;;;;;;5.80;99.90;;;;;;5092858;28;19915;-92
2022/03/05 03:24:35;;;;;;;;;;;5.90;99.90;;;;;;5071480;28;19909;-91
2022/03/05 03:27:01;;;;;;;;;;;5.90;99.90;;;;;;5071170;28;19909;-93
2022/03/05 03:29:27;;;;;;;;;;;5.90;99.90;;;;;;5076132;28;19912;-92
2022/03/05 03:31:52;;;;;;;;;;;5.90;99.90;;;;;;5072030;28;20001;-92
2022/03/05 03:34:18;;;;;;;;;;;5.90;99.90;;;;;;5073327;28;19951;-92
2022/03/05 03:36:44;;;;;;;;;;;5.90;99.90;;;;;;5071677;28;20062;-91
2022/03/05 03:39:10;;;;;;;;;;;5.90;99.90;;;;;;5076958;28;20133;-92
2022/03/05 03:41:36;;;;;;;;;;;5.90;99.90;;;;;;5074630;28;19916;-91
2022/03/05 03:44:01;;;;;;;;;;;6.00;99.90;;;;;;5072410;28;20323;-92
2022/03/05 03:46:27;;;;;;;;;;;6.00;99.90;;;;;;5074242;28;19912;-92
2022/03/05 03:48:52;;;;;;;;;;;5.90;99.90;;;;;;5074204;28;20312;-91
2022/03/05 03:51:18;;;;;;;;;;;5.90;99.90;;;;;;5072977;28;19982;-91
2022/03/05 03:53:44;;;;;;;;;;;5.90;99.90;;;;;;5074503;28;19908;-91
2022/03/05 03:56:09;;;;;;;;;;;5.90;99.90;;;;;;5075610;28;20006;-92
2022/03/05 03:58:35;;;;;;;;;;;5.90;99.90;;;;;;5092029;28;19909;-91
2022/03/05 04:01:00;;;;;;;;;;;6.00;99.90;;;;;;5070727;28;19908;-92
2022/03/05 04:03:26;;;;;;;;;;;5.90;99.90;;;;;;5073860;28;19909;-92
2022/03/05 04:05:51;;;;;;;;;;;5.90;99.90;;;;;;5076432;28;20421;-93
2022/03/05 04:11:01;;;;;;;;;;;5.90;99.90;;;;;;5090812;28;19915;-93
2022/03/05 04:13:27;;;;;;;;;;;5.90;99.90;;;;;;5074169;28;20288;-90
2022/03/05 04:15:53;;;;;;;;;;;5.90;99.90;;;;;;5077048;28;19966;-91
2022/03/05 04:18:18;;;;;;;;;;;5.80;99.90;;;;;;5085915;28;19912;-92
2022/03/05 04:20:44;;;;;;;;;;;5.80;99.90;;;;;;5072752;28;20383;-92
2022/03/05 04:23:10;;;;;;;;;;;5.90;99.90;;;;;;5071318;28;19940;-92
2022/03/05 04:25:35;;;;;;;;;;;5.80;99.90;;;;;;5076088;28;20326;-92
2022/03/05 04:28:01;;;;;;;;;;;5.80;99.90;;;;;;5072172;28;19909;-92
2022/03/05 04:30:27;;;;;;;;;;;5.90;99.90;;;;;;5073802;28;19974;-92
2022/03/05 04:32:52;;;;;;;;;;;5.90;99.90;;;;;;5072735;28;19917;-91
2022/03/05 04:35:18;;;;;;;;;;;5.90;99.90;;;;;;5073942;28;20018;-92
2022/03/05 04:37:44;;;;;;;;;;;5.80;99.90;;;;;;5076264;28;19915;-92
2022/03/05 04:40:10;;;;;;;;;;;5.90;99.90;;;;;;5076334;28;19911;-91
2022/03/05 04:42:36;;;;;;;;;;;5.80;99.90;;;;;;5077667;28;19908;-92
2022/03/05 04:45:02;;;;;;;;;;;5.80;99.90;;;;;;5073872;28;19915;-92
2022/03/05 04:47:28;;;;;;;;;;;5.80;99.90;;;;;;5070669;28;19908;-92
2022/03/05 04:49:53;;;;;;;;;;;5.80;99.90;;;;;;5073530;28;20301;-92
2022/03/05 04:52:19;;;;;;;;;;;5.80;99.90;;;;;;5069424;28;20053;-92
2022/03/05 04:54:45;;;;;;;;;;;5.80;99.90;;;;;;5073501;28;19908;-92
2022/03/05 04:57:11;;;;;;;;;;;5.80;99.90;;;;;;5072991;28;20277;-91
2022/03/05 04:59:36;;;;;;;;;;;5.80;99.90;;;;;;5090260;28;19935;-91
2022/03/05 05:02:02;;;;;;;;;;;5.80;99.90;;;;;;5076191;28;20484;-91
2022/03/05 05:04:28;;;;;;;;;;;5.80;99.90;;;;;;5078789;28;20367;-92
2022/03/05 05:06:54;;;;;;;;;;;5.80;99.90;;;;;;5069589;28;20194;-91
2022/03/05 05:09:19;;;;;;;;;;;5.80;99.90;;;;;;5073426;28;20154;-89
2022/03/05 05:11:45;;;;;;;;;;;5.80;99.90;;;;;;5074653;28;20426;-91
2022/03/05 05:14:10;;;;;;;;;;;5.70;99.90;;;;;;5074806;28;20400;-91
2022/03/05 05:16:36;;;;;;;;;;;5.70;99.90;;;;;;5090555;28;19951;-91
2022/03/05 05:21:46;;;;;;;;;;;5.70;99.90;;;;;;5090814;28;19915;-92
2022/03/05 05:24:11;;;;;;;;;;;5.80;99.90;;;;;;5069472;28;20003;-91
2022/03/05 05:26:37;;;;;;;;;;;5.80;99.90;;;;;;5077960;28;19916;-91
2022/03/05 05:29:03;;;;;;;;;;;5.80;99.90;;;;;;5070857;28;20180;-91
2022/03/05 05:31:29;;;;;;;;;;;5.80;99.90;;;;;;5070899;28;20376;-91
2022/03/05 05:33:54;;;;;;;;;;;5.80;99.90;;;;;;5072266;28;19941;-92
2022/03/05 05:36:20;;;;;;;;;;;5.80;99.90;;;;;;5073282;28;19909;-91
2022/03/05 05:38:46;;;;;;;;;;;5.70;99.90;;;;;;5074513;28;19932;-92
2022/03/05 05:41:16;;;;;;;;;;;5.80;99.90;;;;;;5080161;28;19908;-94
2022/03/05 05:43:42;;;;;;;;;;;5.80;99.90;;;;;;5076257;28;20154;-92
2022/03/05 05:46:07;;;;;;;;;;;5.90;99.90;;;;;;5077668;28;20083;-93
2022/03/05 05:48:33;;;;;;;;;;;5.90;99.90;;;;;;5073415;28;19951;-93
2022/03/05 05:51:01;;;;;;;;;;;6.00;99.90;;;;;;5076398;28;20015;-94
2022/03/05 05:53:27;;;;;;;;;;;6.00;99.90;;;;;;5064965;28;20364;-92
2022/03/05 05:55:53;;;;;;;;;;;6.00;99.90;;;;;;5066139;28;19970;-92
2022/03/05 05:58:19;;;;;;;;;;;6.00;99.90;;;;;;5065736;28;19909;-92
2022/03/05 06:00:45;;;;;;;;;;;6.00;99.90;;;;;;5064299;28;19920;-92
2022/03/05 06:03:10;;;;;;;;;;;5.90;99.90;;;;;;5067819;28;19909;-93
2022/03/05 06:05:36;;;;;;;;;;;5.90;99.90;;;;;;5069194;28;19998;-91
2022/03/05 06:08:02;;;;;;;;;;;5.80;99.90;;;;;;5069252;28;19912;-92
2022/03/05 06:10:27;;;;;;;;;;;5.60;99.90;;;;;;5079488;28;19909;-92
2022/03/05 06:12:53;;;;;;;;;;;5.60;99.90;;;;;;5082761;28;20003;-92
2022/03/05 06:15:18;;;;;;;;;;;5.60;99.90;;;;;;5071392;28;19905;-93
2022/03/05 06:17:44;;;;;;;;;;;5.60;99.90;;;;;;5074584;28;19916;-92
2022/03/05 06:20:10;;;;;;;;;;;5.60;99.90;;;;;;5082831;28;20185;-91
2022/03/05 06:22:36;;;;;;;;;;;5.60;99.90;;;;;;5068548;28;19904;-92
2022/03/05 06:25:02;;;;;;;;;;;5.60;99.90;;;;;;5071849;28;19919;-92
2022/03/05 06:27:28;;;;;;;;;;;5.60;99.90;;;;;;5069961;28;19905;-92
2022/03/05 06:29:53;;;;;;;;;;;5.60;99.90;;;;;;5065287;28;20041;-93
2022/03/05 06:32:19;;;;;;;;;;;5.70;99.90;;;;;;5063018;28;20525;-92
2022/03/05 06:34:45;;;;;;;;;;;5.70;99.90;;;;;;5069846;28;20446;-92
2022/03/05 06:37:10;;;;;;;;;;;5.80;99.90;;;;;;5063421;28;19913;-91
2022/03/05 06:39:36;;;;;;;;;;;5.70;99.90;;;;;;5071611;28;19916;-92
2022/03/05 06:42:01;;;;;;;;;;;5.70;99.90;;;;;;5071903;28;20132;-92
2022/03/05 06:44:27;;;;;;;;;;;5.70;99.90;;;;;;5069456;28;19913;-93
2022/03/05 06:46:53;;;;;;;;;;;5.70;99.90;;;;;;5052603;28;19962;-92
2022/03/05 06:49:18;;;;;;;;;;;5.70;99.90;;;;;;5066465;28;19954;-92
2022/03/05 06:51:45;;;;;;;;;;;5.70;99.90;;;;;;5070675;28;19951;-92
2022/03/05 06:54:10;;;;;;;;;;;5.70;99.90;;;;;;5052272;28;19909;-90
2022/03/05 06:56:36;;;;;;;;;;;5.80;99.90;;;;;;5052313;28;19909;-91
2022/03/05 06:59:02;;;;;;;;;;;5.70;99.90;;;;;;5058699;28;20423;-91
2022/03/05 07:01:27;;;;;;;;;;;5.70;99.90;;;;;;5065540;28;19913;-89
2022/03/05 07:03:53;;;;;;;;;;;5.70;99.90;;;;;;5051389;28;20285;-89
2022/03/05 07:06:18;;;;;;;;;;;5.80;99.90;;;;;;5052773;28;20341;-89
2022/03/05 07:08:44;;;;;;;;;;;5.80;99.90;;;;;;5052735;28;19908;-89
2022/03/05 07:11:09;;;;;;;;;;;5.80;99.90;;;;;;5053130;28;19909;-89
2022/03/05 07:13:35;;;;;;;;;;;5.90;99.90;;;;;;5051489;28;19912;-89
2022/03/05 07:16:00;;;;;;;;;;;5.90;99.90;;;;;;5063253;28;19923;-89
2022/03/05 07:18:26;;;;;;;;;;;5.90;99.90;;;;;;5071844;28;20315;-89
2022/03/05 07:20:52;;;;;;;;;;;5.90;99.90;;;;;;5072258;28;19908;-89
2022/03/05 07:23:17;;;;;;;;;;;6.00;99.90;;;;;;5063752;28;20053;-89
2022/03/05 07:25:43;;;;;;;;;;;6.10;99.90;;;;;;5071875;28;19908;-89
2022/03/05 07:28:10;;;;;;;;;;;6.10;99.90;;;;;;5070478;28;20488;-89
2022/03/05 07:30:37;;;;;;;;;;;6.20;99.90;;;;;;5060859;28;19909;-89
2022/03/05 07:33:02;;;;;;;;;;;6.20;99.90;;;;;;5066737;28;20300;-89
2022/03/05 07:35:28;;;;;;;;;;;6.20;99.90;;;;;;5056405;28;19995;-88
2022/03/05 07:37:53;;;;;;;;;;;6.30;99.90;;;;;;5050908;28;19940;-89
2022/03/05 07:40:19;;;;;;;;;;;6.40;99.90;;;;;;5050689;28;19916;-89
2022/03/05 07:42:45;;;;;;;;;;;6.50;99.90;;;;;;5050790;28;19962;-89
2022/03/05 07:45:10;;;;;;;;;;;6.50;99.90;;;;;;5050556;28;19909;-89
2022/03/05 07:47:36;;;;;;;;;;;6.50;99.90;;;;;;5064924;28;19916;-89
2022/03/05 07:50:02;;;;;;;;;;;6.50;99.90;;;;;;5068825;28;20389;-90
2022/03/05 07:52:28;;;;;;;;;;;6.60;99.90;;;;;;5062198;28;20026;-89
2022/03/05 07:54:53;;;;;;;;;;;6.70;99.90;;;;;;5071365;28;20003;-89
2022/03/05 07:57:19;;;;;;;;;;;6.70;99.90;;;;;;5070116;28;19909;-89
2022/03/05 07:59:44;;;;;;;;;;;6.80;99.90;;;;;;5069974;28;19915;-89
2022/03/05 08:02:10;;;;;;;;;;;6.80;99.90;;;;;;5078009;28;19909;-89
2022/03/05 08:04:37;;;;;;;;;;;6.80;99.90;;;;;;5073854;28;19908;-90
2022/03/05 08:07:04;;;;;;;;;;;6.80;99.90;;;;;;5071411;28;19909;-89
2022/03/05 08:09:30;;;;;;;;;;;6.90;99.90;;;;;;5071352;28;20004;-89
2022/03/05 08:11:55;;;;;;;;;;;7.00;99.90;;;;;;5069914;28;20021;-89
2022/03/05 08:14:21;;;;;;;;;;;7.10;99.90;;;;;;5070160;28;19905;-90
2022/03/05 08:16:47;;;;;;;;;;;7.10;99.90;;;;;;5065618;28;19913;-89
2022/03/05 08:19:12;;;;;;;;;;;7.10;99.90;;;;;;5076565;28;19912;-91
2022/03/05 08:21:38;;;;;;;;;;;7.20;99.90;;;;;;5075104;28;19927;-90
2022/03/05 08:24:04;;;;;;;;;;;7.30;99.90;;;;;;5075685;28;19908;-91
2022/03/05 08:26:29;;;;;;;;;;;7.40;99.90;;;;;;5070451;28;19963;-90
2022/03/05 08:28:55;;;;;;;;;;;7.30;99.90;;;;;;5069205;28;20376;-90
2022/03/05 08:31:20;;;;;;;;;;;7.30;99.90;;;;;;5068157;28;20340;-90
2022/03/05 08:33:46;;;;;;;;;;;7.20;99.90;;;;;;5068297;28;20299;-90
2022/03/05 08:36:12;;;;;;;;;;;7.30;99.90;;;;;;5069383;28;20333;-90
2022/03/05 08:38:40;;;;;;;;;;;7.40;99.90;;;;;;5068218;28;19904;-91
2022/03/05 08:41:05;;;;;;;;;;;7.50;99.90;;;;;;5069054;28;19999;-90
2022/03/05 08:43:31;;;;;;;;;;;7.60;99.90;;;;;;5068178;28;20003;-90
2022/03/05 08:45:56;;;;;;;;;;;7.60;99.90;;;;;;5070714;28;19913;-90
2022/03/05 08:48:22;;;;;;;;;;;7.70;99.90;;;;;;5069681;28;19915;-89
2022/03/05 08:50:48;;;;;;;;;;;7.80;99.90;;;;;;5069787;28;20365;-90
2022/03/05 08:53:13;;;;;;;;;;;7.80;99.90;;;;;;5056125;28;20316;-90
2022/03/05 08:55:39;;;;;;;;;;;7.70;99.90;;;;;;5055941;28;19955;-90
2022/03/05 08:58:04;;;;;;;;;;;7.70;99.90;;;;;;5070021;28;19955;-90
2022/03/05 09:00:30;;;;;;;;;;;7.70;99.90;;;;;;5057892;28;19990;-90
2022/03/05 09:02:55;;;;;;;;;;;7.70;99.90;;;;;;5050519;28;19909;-89
2022/03/05 09:05:21;;;;;;;;;;;7.90;99.90;;;;;;5049799;28;19909;-91
2022/03/05 09:07:47;;;;;;;;;;;8.00;99.90;;;;;;5056123;28;19959;-90
2022/03/05 09:10:12;;;;;;;;;;;8.10;99.90;;;;;;5073310;28;19974;-90
2022/03/05 09:12:38;;;;;;;;;;;8.10;99.90;;;;;;5057154;28;19924;-90
2022/03/05 09:15:05;;;;;;;;;;;8.10;99.90;;;;;;5053656;28;19996;-90
2022/03/05 09:17:30;;;;;;;;;;;8.20;99.90;;;;;;5057967;28;19915;-91
2022/03/05 09:19:57;;;;;;;;;;;8.20;99.90;;;;;;5073139;28;19913;-91
2022/03/05 09:22:23;;;;;;;;;;;8.20;99.90;;;;;;5063507;28;19916;-91
2022/03/05 09:24:49;;;;;;;;;;;8.20;99.90;;;;;;5064003;28;19908;-90
2022/03/05 09:27:14;;;;;;;;;;;8.40;99.90;;;;;;5063216;28;19954;-91
2022/03/05 09:29:40;;;;;;;;;;;8.40;99.90;;;;;;5053443;28;19944;-91
2022/03/05 09:32:06;;;;;;;;;;;8.50;99.90;;;;;;5053172;28;19924;-90
2022/03/05 09:34:31;;;;;;;;;;;8.50;99.90;;;;;;5063339;28;19915;-90
2022/03/05 09:36:57;;;;;;;;;;;8.60;99.90;;;;;;5065201;28;19924;-89
2022/03/05 09:39:22;;;;;;;;;;;8.60;99.90;;;;;;5054681;28;19944;-90
2022/03/05 09:41:48;;;;;;;;;;;8.60;99.90;;;;;;5062281;28;20389;-90
2022/03/05 09:44:13;;;;;;;;;;;8.60;99.90;;;;;;5076647;28;19909;-90
2022/03/05 09:46:41;;;;;;;;;;;8.70;99.90;;;;;;5088345;28;19908;-90
2022/03/05 09:49:08;;;;;;;;;;;8.80;99.90;;;;;;5077505;28;19913;-90
2022/03/05 09:51:35;;;;;;;;;;;8.90;99.90;;;;;;5074846;28;19924;-89
2022/03/05 09:54:01;;;;;;;;;;;9.00;99.90;;;;;;5096842;28;19908;-89
2022/03/05 09:56:28;;;;;;;;;;;9.00;99.90;;;;;;5111576;28;19912;-90
2022/03/05 09:58:56;;;;;;;;;;;9.10;99.90;;;;;;5094375;28;20002;-90
2022/03/05 10:01:21;;;;;;;;;;;9.10;99.90;;;;;;5099511;28;19902;-90
2022/03/05 10:03:48;;;;;;;;;;;9.10;99.90;;;;;;5096150;28;19912;-90
2022/03/05 10:06:17;;;;;;;;;;;9.20;99.90;;;;;;5114113;28;19908;-89
2022/03/05 10:08:43;;;;;;;;;;;9.40;99.90;;;;;;5097194;28;19915;-91
2022/03/05 10:11:11;;;;;;;;;;;9.40;99.90;;;;;;5098430;28;19912;-91
2022/03/05 10:13:39;;;;;;;;;;;9.50;99.90;;;;;;5095147;28;19916;-91
2022/03/05 10:16:20;;;;;;;;;;;9.50;99.90;;;;;;5094667;28;19909;-91
2022/03/05 10:18:46;;;;;;;;;;;9.60;99.90;;;;;;5110263;28;19908;-90
2022/03/05 10:21:12;;;;;;;;;;;9.70;99.90;;;;;;5096822;28;19896;-91
2022/03/05 10:23:40;;;;;;;;;;;9.80;99.90;;;;;;5101156;28;19940;-91
2022/03/05 10:26:07;;;;;;;;;;;9.90;99.90;;;;;;5094687;28;19908;-90
2022/03/05 10:28:34;;;;;;;;;;;10.00;99.90;;;;;;5093959;28;19909;-92
2022/03/05 10:31:03;;;;;;;;;;;10.00;99.90;;;;;;5094234;28;19987;-91
2022/03/05 10:33:40;;;;;;;;;;;10.10;99.90;;;;;;5094656;28;19917;-91
2022/03/05 10:36:05;;;;;;;;;;;10.10;99.90;;;;;;5093004;28;19915;-93
2022/03/05 10:38:50;;;;;;;;;;;10.20;99.90;;;;;;5077123;28;20294;-92
2022/03/05 10:41:17;;;;;;;;;;;10.20;99.90;;;;;;5077416;28;19934;-89
2022/03/05 10:43:44;;;;;;;;;;;10.30;99.90;;;;;;5092594;28;20046;-88
2022/03/05 10:46:09;;;;;;;;;;;10.40;99.90;;;;;;5092807;28;19915;-88
2022/03/05 10:48:40;;;;;;;;;;;10.50;99.90;;;;;;5093074;28;19907;-89
2022/03/05 10:51:24;;;;;;;;;;;10.50;99.90;;;;;;5092787;28;19908;-89
2022/03/05 10:53:49;;;;;;;;;;;10.60;99.90;;;;;;5092974;28;19909;-89
2022/03/05 10:56:24;;;;;;;;;;;10.70;99.90;;;;;;5087453;28;19909;-88
2022/03/05 10:59:02;;;;;;;;;;;10.80;99.90;;;;;;5068247;28;20284;-89
2022/03/05 11:01:27;;;;;;;;;;;10.90;99.90;;;;;;5072650;28;19920;-90
2022/03/05 11:03:53;;;;;;;;;;;11.00;99.90;;;;;;5071196;28;19909;-89
2022/03/05 11:06:19;;;;;;;;;;;11.00;99.90;;;;;;5072765;28;19909;-88
2022/03/05 11:08:46;;;;;;;;;;;11.00;99.90;;;;;;5070958;28;19923;-88
2022/03/05 11:11:12;;;;;;;;;;;11.10;99.90;;;;;;5072619;28;19909;-88
2022/03/05 11:13:38;;;;;;;;;;;11.10;99.90;;;;;;5067697;28;20304;-88
2022/03/05 11:16:04;;;;;;;;;;;11.00;99.90;;;;;;5092084;28;20398;-88
2022/03/05 11:18:30;;;;;;;;;;;11.10;99.90;;;;;;5073559;28;19908;-88
2022/03/05 11:20:55;;;;;;;;;;;11.20;99.90;;;;;;5074621;28;20303;-88
2022/03/05 11:23:21;;;;;;;;;;;11.20;99.90;;;;;;5092979;28;19908;-88
2022/03/05 11:25:47;;;;;;;;;;;11.30;99.90;;;;;;5092569;28;19908;-89
2022/03/05 11:28:18;;;;;;;;;;;11.30;99.90;;;;;;5074520;28;19978;-88
2022/03/05 11:30:44;;;;;;;;;;;11.10;99.90;;;;;;5075559;28;19991;-88
2022/03/05 11:33:19;;;;;;;;;;;10.90;99.90;;;;;;5070553;28;19924;-88
2022/03/05 11:35:45;;;;;;;;;;;11.00;99.90;;;;;;5081108;28;19908;-88
2022/03/05 11:38:29;;;;;;;;;;;11.10;99.90;;;;;;5099922;28;19908;-88
2022/03/05 11:40:54;;;;;;;;;;;11.40;99.90;;;;;;5091330;28;19912;-94
2022/03/05 11:43:21;;;;;;;;;;;11.60;99.90;;;;;;5092229;28;19908;-88
2022/03/05 11:45:56;;;;;;;;;;;11.70;99.90;;;;;;5071362;28;19916;-86
2022/03/05 11:48:24;;;;;;;;;;;11.80;99.90;;;;;;5086743;28;19908;-89
2022/03/05 11:50:50;;;;;;;;;;;11.90;99.90;;;;;;5075444;28;19908;-89
2022/03/05 11:53:16;;;;;;;;;;;11.90;99.90;;;;;;5074327;28;20404;-88
2022/03/05 11:55:42;;;;;;;;;;;12.00;99.90;;;;;;5070980;28;19952;-89
2022/03/05 11:58:14;;;;;;;;;;;12.00;99.90;;;;;;5074105;28;19923;-89
2022/03/05 12:00:49;;;;;;;;;;;11.90;99.90;;;;;;5073421;28;19908;-89
2022/03/05 12:03:21;;;;;;;;;;;12.00;99.90;;;;;;5070404;28;19909;-89
2022/03/05 12:05:47;;;;;;;;;;;12.10;99.90;;;;;;5071112;28;19978;-89
2022/03/05 12:08:35;;;;;;;;;;;12.30;99.90;;;;;;5070958;28;19994;-89
2022/03/05 12:11:06;;;;;;;;;;;12.50;99.90;;;;;;5072046;28;19909;-88
2022/03/05 12:13:32;;;;;;;;;;;12.40;99.90;;;;;;5071364;28;19998;-89
2022/03/05 12:15:58;;;;;;;;;;;12.30;99.90;;;;;;5074444;28;20352;-88
2022/03/05 12:18:24;;;;;;;;;;;11.80;99.90;;;;;;5073562;28;19999;-89
2022/03/05 12:20:49;;;;;;;;;;;11.50;99.90;;;;;;5073306;28;19915;-89
2022/03/05 12:23:16;;;;;;;;;;;11.40;99.90;;;;;;5073436;28;19908;-87
2022/03/05 12:25:44;;;;;;;;;;;11.50;99.90;;;;;;5091277;28;20395;-89
2022/03/05 12:28:13;;;;;;;;;;;11.60;99.90;;;;;;5073516;28;19908;-89
2022/03/05 12:30:39;;;;;;;;;;;11.70;99.90;;;;;;5091067;28;19915;-89
2022/03/05 12:33:09;;;;;;;;;;;11.90;99.90;;;;;;5084730;28;19916;-88
2022/03/05 12:35:35;;;;;;;;;;;12.20;99.90;;;;;;5071048;28;20298;-89
2022/03/05 12:38:01;;;;;;;;;;;12.20;99.90;;;;;;5082945;28;19916;-88
2022/03/05 12:40:27;;;;;;;;;;;12.10;99.90;;;;;;5092751;28;19909;-89
2022/03/05 12:42:54;;;;;;;;;;;12.20;99.90;;;;;;5079878;28;19915;-88
2022/03/05 12:45:24;;;;;;;;;;;12.50;99.90;;;;;;5071530;28;19908;-88
2022/03/05 12:47:50;;;;;;;;;;;12.50;99.90;;;;;;5072383;28;19917;-88
2022/03/05 12:50:19;;;;;;;;;;;12.70;99.90;;;;;;5069653;28;19908;-88
2022/03/05 12:52:58;;;;;;;;;;;13.00;99.90;;;;;;5077451;28;19916;-89
2022/03/05 12:55:26;;;;;;;;;;;12.70;99.90;;;;;;5077768;28;20431;-89
2022/03/05 12:57:52;;;;;;;;;;;12.40;99.90;;;;;;5064947;28;19999;-88
2022/03/05 13:00:17;;;;;;;;;;;12.20;99.90;;;;;;5082268;28;19917;-89
2022/03/05 13:02:43;;;;;;;;;;;12.10;99.90;;;;;;5098149;28;19900;-89
2022/03/05 13:05:15;;;;;;;;;;;12.30;99.90;;;;;;5080196;28;19937;-88
2022/03/05 13:07:40;;;;;;;;;;;12.60;99.90;;;;;;5096765;28;19919;-89
2022/03/05 13:10:09;;;;;;;;;;;12.90;99.90;;;;;;5094397;28;19904;-89
2022/03/05 13:12:39;;;;;;;;;;;13.00;99.90;;;;;;5081206;28;19913;-89
2022/03/05 13:15:05;;;;;;;;;;;12.80;99.90;;;;;;5076160;28;19912;-89
2022/03/05 13:17:31;;;;;;;;;;;12.60;99.90;;;;;;5090416;28;20273;-89
2022/03/05 13:19:57;;;;;;;;;;;12.50;99.90;;;;;;5072455;28;19915;-89
2022/03/05 13:22:27;;;;;;;;;;;12.80;99.90;;;;;;5072217;28;20425;-89
2022/03/05 13:24:52;;;;;;;;;;;12.90;99.90;;;;;;5080714;28;19908;-89
2022/03/05 13:27:25;;;;;;;;;;;13.10;99.90;;;;;;5077007;28;20304;-89
2022/03/05 13:29:52;;;;;;;;;;;13.30;99.90;;;;;;5084890;28;20201;-89
2022/03/05 13:32:17;;;;;;;;;;;13.50;99.90;;;;;;5073816;28;19951;-89
2022/03/05 13:34:43;;;;;;;;;;;13.80;99.60;;;;;;5074184;28;20001;-90
2022/03/05 13:37:09;;;;;;;;;;;14.20;99.90;;;;;;5090605;28;19909;-89
2022/03/05 13:39:35;;;;;;;;;;;14.60;99.90;;;;;;5089944;28;19951;-89
2022/03/05 13:42:09;;;;;;;;;;;14.90;99.90;;;;;;5089841;28;19931;-89
2022/03/05 13:44:36;;;;;;;;;;;14.70;99.60;;;;;;5089765;28;20003;-89
2022/03/05 13:47:04;;;;;;;;;;;13.90;99.40;;;;;;5072816;28;19908;-89
2022/03/05 13:49:29;;;;;;;;;;;13.40;99.90;;;;;;5089757;28;19908;-89
2022/03/05 13:51:56;;;;;;;;;;;13.10;99.90;;;;;;5070342;28;19924;-89
2022/03/05 13:54:40;;;;;;;;;;;12.80;99.90;;;;;;5084041;28;19923;-89
2022/03/05 13:57:06;;;;;;;;;;;12.60;99.90;;;;;;5070443;28;20262;-87
2022/03/05 13:59:39;;;;;;;;;;;12.60;99.90;;;;;;5081518;28;19916;-88
2022/03/05 14:02:05;;;;;;;;;;;12.50;99.90;;;;;;5091743;28;19908;-86
2022/03/05 14:04:30;;;;;;;;;;;12.40;99.90;;;;;;5079661;28;19953;-89
2022/03/05 14:07:00;;;;;;;;;;;12.30;99.90;;;;;;5076183;28;20066;-89
2022/03/05 14:09:30;;;;;;;;;;;12.20;99.90;;;;;;5087366;28;19904;-89
2022/03/05 14:12:04;;;;;;;;;;;12.40;99.90;;;;;;5090863;28;19950;-89
2022/03/05 14:14:50;;;;;;;;;;;12.50;99.90;;;;;;5099806;28;19921;-89
2022/03/05 14:17:27;;;;;;;;;;;12.60;99.90;;;;;;5104706;28;19942;-89
2022/03/05 14:20:07;;;;;;;;;;;12.80;99.90;;;;;;5086566;28;19991;-89
2022/03/05 14:22:34;;;;;;;;;;;12.90;99.90;;;;;;5103958;28;19912;-88
2022/03/05 14:25:00;;;;;;;;;;;13.20;99.90;;;;;;5104774;28;19904;-88
2022/03/05 14:27:25;;;;;;;;;;;13.20;99.90;;;;;;5086389;28;20216;-88
2022/03/05 14:29:51;;;;;;;;;;;13.10;99.90;;;;;;5082633;28;19912;-88